sensor_id;sensor_type;location;lat;lon;timestamp;P1;durP1;ratioP1;P2;durP2;ratioP2
25301;SDS011;13243;50.888;4.724;2022-10-30T00:02:51;18.38;;;5.53;;
25301;SDS011;13243;50.888;4.724;2022-10-30T00:07:56;19.20;;;5.72;;
25301;SDS011;13243;50.888;4.724;2022-10-30T00:12:59;11.90;;;5.63;;
25301;SDS011;13243;50.888;4.724;2022-10-30T00:18:01;22.50;;;5.68;;
25301;SDS011;13243;50.888;4.724;2022-10-30T00:23:03;10.38;;;5.40;;
25301;SDS011;13243;50.888;4.724;2022-10-30T00:28:05;9.95;;;5.53;;
25301;SDS011;13243;50.888;4.724;2022-10-30T00:33:14;12.98;;;5.35;;
25301;SDS011;13243;50.888;4.724;2022-10-30T00:38:16;13.60;;;5.97;;
25301;SDS011;13243;50.888;4.724;2022-10-30T00:43:35;12.63;;;5.40;;
25301;SDS011;13243;50.888;4.724;2022-10-30T00:48:39;12.70;;;5.63;;
25301;SDS011;13243;50.888;4.724;2022-10-30T00:53:42;11.80;;;5.10;;
25301;SDS011;13243;50.888;4.724;2022-10-30T00:58:50;11.32;;;5.80;;
25301;SDS011;13243;50.888;4.724;2022-10-30T01:03:57;18.10;;;6.20;;
25301;SDS011;13243;50.888;4.724;2022-10-30T01:09:01;15.57;;;5.22;;
25301;SDS011;13243;50.888;4.724;2022-10-30T01:14:05;13.68;;;4.85;;
25301;SDS011;13243;50.888;4.724;2022-10-30T01:24:45;15.68;;;6.22;;
25301;SDS011;13243;50.888;4.724;2022-10-30T01:30:03;12.68;;;5.55;;
25301;SDS011;13243;50.888;4.724;2022-10-30T01:35:42;12.32;;;5.05;;
25301;SDS011;13243;50.888;4.724;2022-10-30T01:40:48;12.23;;;5.90;;
25301;SDS011;13243;50.888;4.724;2022-10-30T02:02:06;14.43;;;5.57;;
25301;SDS011;13243;50.888;4.724;2022-10-30T02:07:10;14.90;;;5.20;;
25301;SDS011;13243;50.888;4.724;2022-10-30T02:12:12;16.15;;;5.03;;
25301;SDS011;13243;50.888;4.724;2022-10-30T02:17:14;11.90;;;4.75;;
25301;SDS011;13243;50.888;4.724;2022-10-30T02:22:16;10.73;;;4.82;;
25301;SDS011;13243;50.888;4.724;2022-10-30T02:27:20;16.02;;;5.30;;
25301;SDS011;13243;50.888;4.724;2022-10-30T02:32:22;13.10;;;5.28;;
25301;SDS011;13243;50.888;4.724;2022-10-30T02:37:23;9.05;;;4.80;;
25301;SDS011;13243;50.888;4.724;2022-10-30T02:42:26;11.23;;;4.72;;
25301;SDS011;13243;50.888;4.724;2022-10-30T02:52:37;16.52;;;4.88;;
25301;SDS011;13243;50.888;4.724;2022-10-30T02:57:39;11.93;;;4.97;;
25301;SDS011;13243;50.888;4.724;2022-10-30T03:02:40;10.23;;;4.72;;
25301;SDS011;13243;50.888;4.724;2022-10-30T03:07:42;18.58;;;5.60;;
25301;SDS011;13243;50.888;4.724;2022-10-30T03:12:45;16.13;;;5.30;;
25301;SDS011;13243;50.888;4.724;2022-10-30T03:17:47;13.45;;;4.55;;
25301;SDS011;13243;50.888;4.724;2022-10-30T03:22:52;10.60;;;4.90;;
25301;SDS011;13243;50.888;4.724;2022-10-30T03:27:54;12.52;;;5.63;;
25301;SDS011;13243;50.888;4.724;2022-10-30T03:32:57;12.13;;;4.78;;
25301;SDS011;13243;50.888;4.724;2022-10-30T03:43:08;10.20;;;4.70;;
25301;SDS011;13243;50.888;4.724;2022-10-30T03:48:11;13.52;;;6.25;;
25301;SDS011;13243;50.888;4.724;2022-10-30T03:53:13;11.40;;;4.90;;
25301;SDS011;13243;50.888;4.724;2022-10-30T03:58:15;10.18;;;4.63;;
25301;SDS011;13243;50.888;4.724;2022-10-30T04:03:17;11.10;;;4.82;;
25301;SDS011;13243;50.888;4.724;2022-10-30T04:08:25;11.25;;;5.80;;
25301;SDS011;13243;50.888;4.724;2022-10-30T04:13:34;10.32;;;5.22;;
25301;SDS011;13243;50.888;4.724;2022-10-30T04:18:36;13.57;;;5.18;;
25301;SDS011;13243;50.888;4.724;2022-10-30T04:23:38;10.95;;;4.80;;
25301;SDS011;13243;50.888;4.724;2022-10-30T04:28:39;18.05;;;5.65;;
25301;SDS011;13243;50.888;4.724;2022-10-30T04:33:41;10.30;;;4.90;;
25301;SDS011;13243;50.888;4.724;2022-10-30T04:38:43;13.13;;;6.05;;
25301;SDS011;13243;50.888;4.724;2022-10-30T04:43:47;10.18;;;5.35;;
25301;SDS011;13243;50.888;4.724;2022-10-30T04:48:49;12.07;;;5.40;;
25301;SDS011;13243;50.888;4.724;2022-10-30T04:59:03;15.88;;;6.13;;
25301;SDS011;13243;50.888;4.724;2022-10-30T05:04:05;21.50;;;6.15;;
25301;SDS011;13243;50.888;4.724;2022-10-30T05:09:07;14.93;;;5.20;;
25301;SDS011;13243;50.888;4.724;2022-10-30T05:14:09;14.13;;;5.57;;
25301;SDS011;13243;50.888;4.724;2022-10-30T05:24:29;13.27;;;5.43;;
25301;SDS011;13243;50.888;4.724;2022-10-30T05:29:31;10.82;;;5.07;;
25301;SDS011;13243;50.888;4.724;2022-10-30T05:34:48;8.93;;;4.63;;
25301;SDS011;13243;50.888;4.724;2022-10-30T05:39:56;20.48;;;6.75;;
25301;SDS011;13243;50.888;4.724;2022-10-30T05:44:58;13.88;;;5.78;;
25301;SDS011;13243;50.888;4.724;2022-10-30T05:50:06;14.30;;;6.10;;
25301;SDS011;13243;50.888;4.724;2022-10-30T05:55:08;18.65;;;5.82;;
25301;SDS011;13243;50.888;4.724;2022-10-30T06:00:19;13.43;;;5.40;;
25301;SDS011;13243;50.888;4.724;2022-10-30T06:05:21;12.15;;;5.93;;
25301;SDS011;13243;50.888;4.724;2022-10-30T06:10:23;12.30;;;5.72;;
25301;SDS011;13243;50.888;4.724;2022-10-30T06:15:28;13.95;;;6.00;;
25301;SDS011;13243;50.888;4.724;2022-10-30T06:20:30;11.73;;;5.00;;
25301;SDS011;13243;50.888;4.724;2022-10-30T06:25:34;16.92;;;5.68;;
25301;SDS011;13243;50.888;4.724;2022-10-30T06:30:41;9.82;;;5.35;;
25301;SDS011;13243;50.888;4.724;2022-10-30T06:35:43;20.70;;;5.72;;
25301;SDS011;13243;50.888;4.724;2022-10-30T06:40:58;7.93;;;4.57;;
25301;SDS011;13243;50.888;4.724;2022-10-30T06:46:01;20.60;;;6.43;;
25301;SDS011;13243;50.888;4.724;2022-10-30T06:51:03;11.15;;;5.32;;
25301;SDS011;13243;50.888;4.724;2022-10-30T06:56:05;12.00;;;5.22;;
25301;SDS011;13243;50.888;4.724;2022-10-30T07:01:07;12.60;;;5.78;;
25301;SDS011;13243;50.888;4.724;2022-10-30T07:06:09;12.93;;;5.55;;
25301;SDS011;13243;50.888;4.724;2022-10-30T07:11:11;11.65;;;6.13;;
25301;SDS011;13243;50.888;4.724;2022-10-30T07:16:13;13.68;;;5.68;;
25301;SDS011;13243;50.888;4.724;2022-10-30T07:21:14;16.23;;;6.47;;
25301;SDS011;13243;50.888;4.724;2022-10-30T07:26:16;17.88;;;5.65;;
25301;SDS011;13243;50.888;4.724;2022-10-30T07:31:18;12.00;;;5.60;;
25301;SDS011;13243;50.888;4.724;2022-10-30T07:36:40;16.02;;;6.18;;
25301;SDS011;13243;50.888;4.724;2022-10-30T07:41:42;14.70;;;5.50;;
25301;SDS011;13243;50.888;4.724;2022-10-30T07:46:50;20.77;;;6.05;;
25301;SDS011;13243;50.888;4.724;2022-10-30T07:51:51;13.48;;;6.97;;
25301;SDS011;13243;50.888;4.724;2022-10-30T07:56:53;14.30;;;6.13;;
25301;SDS011;13243;50.888;4.724;2022-10-30T08:01:55;13.48;;;6.18;;
25301;SDS011;13243;50.888;4.724;2022-10-30T08:06:57;13.77;;;7.10;;
25301;SDS011;13243;50.888;4.724;2022-10-30T08:11:59;15.70;;;5.78;;
25301;SDS011;13243;50.888;4.724;2022-10-30T08:17:01;15.45;;;6.50;;
25301;SDS011;13243;50.888;4.724;2022-10-30T08:22:02;14.75;;;4.78;;
25301;SDS011;13243;50.888;4.724;2022-10-30T08:27:04;12.65;;;5.20;;
25301;SDS011;13243;50.888;4.724;2022-10-30T08:32:06;15.73;;;5.88;;
25301;SDS011;13243;50.888;4.724;2022-10-30T08:37:08;15.15;;;5.95;;
25301;SDS011;13243;50.888;4.724;2022-10-30T08:42:10;18.60;;;5.85;;
25301;SDS011;13243;50.888;4.724;2022-10-30T08:47:12;12.48;;;5.65;;
25301;SDS011;13243;50.888;4.724;2022-10-30T08:52:14;11.40;;;4.93;;
25301;SDS011;13243;50.888;4.724;2022-10-30T08:57:15;9.93;;;4.88;;
25301;SDS011;13243;50.888;4.724;2022-10-30T09:02:17;23.83;;;5.68;;
25301;SDS011;13243;50.888;4.724;2022-10-30T09:07:19;12.75;;;5.20;;
25301;SDS011;13243;50.888;4.724;2022-10-30T09:12:21;13.73;;;5.85;;
25301;SDS011;13243;50.888;4.724;2022-10-30T09:17:23;14.73;;;5.55;;
25301;SDS011;13243;50.888;4.724;2022-10-30T09:22:25;14.18;;;5.20;;
25301;SDS011;13243;50.888;4.724;2022-10-30T09:27:27;10.38;;;4.80;;
25301;SDS011;13243;50.888;4.724;2022-10-30T09:32:28;11.98;;;5.28;;
25301;SDS011;13243;50.888;4.724;2022-10-30T09:37:34;16.08;;;4.97;;
25301;SDS011;13243;50.888;4.724;2022-10-30T09:42:41;11.27;;;4.85;;
25301;SDS011;13243;50.888;4.724;2022-10-30T10:04:23;11.20;;;4.15;;
25301;SDS011;13243;50.888;4.724;2022-10-30T10:09:34;15.85;;;4.38;;
25301;SDS011;13243;50.888;4.724;2022-10-30T10:14:40;11.45;;;4.65;;
25301;SDS011;13243;50.888;4.724;2022-10-30T10:19:56;6.72;;;4.07;;
25301;SDS011;13243;50.888;4.724;2022-10-30T10:24:59;15.43;;;4.75;;
25301;SDS011;13243;50.888;4.724;2022-10-30T10:30:21;21.27;;;4.88;;
25301;SDS011;13243;50.888;4.724;2022-10-30T10:51:31;7.80;;;3.73;;
25301;SDS011;13243;50.888;4.724;2022-10-30T10:56:35;9.07;;;3.67;;
25301;SDS011;13243;50.888;4.724;2022-10-30T11:01:41;10.10;;;3.92;;
25301;SDS011;13243;50.888;4.724;2022-10-30T11:06:50;12.65;;;4.65;;
25301;SDS011;13243;50.888;4.724;2022-10-30T11:11:55;10.38;;;4.28;;
25301;SDS011;13243;50.888;4.724;2022-10-30T11:17:12;12.07;;;3.95;;
25301;SDS011;13243;50.888;4.724;2022-10-30T11:22:30;10.50;;;3.83;;
25301;SDS011;13243;50.888;4.724;2022-10-30T11:27:37;12.25;;;3.90;;
25301;SDS011;13243;50.888;4.724;2022-10-30T11:32:40;8.65;;;4.35;;
25301;SDS011;13243;50.888;4.724;2022-10-30T11:37:43;12.00;;;4.43;;
25301;SDS011;13243;50.888;4.724;2022-10-30T11:42:57;14.50;;;3.70;;
25301;SDS011;13243;50.888;4.724;2022-10-30T11:48:07;11.07;;;3.67;;
25301;SDS011;13243;50.888;4.724;2022-10-30T11:53:22;7.63;;;3.95;;
25301;SDS011;13243;50.888;4.724;2022-10-30T11:58:32;11.55;;;3.65;;
25301;SDS011;13243;50.888;4.724;2022-10-30T12:03:38;11.60;;;4.35;;
25301;SDS011;13243;50.888;4.724;2022-10-30T12:08:56;11.38;;;4.55;;
25301;SDS011;13243;50.888;4.724;2022-10-30T12:14:04;7.72;;;4.03;;
25301;SDS011;13243;50.888;4.724;2022-10-30T12:19:07;11.75;;;3.92;;
25301;SDS011;13243;50.888;4.724;2022-10-30T12:29:24;14.95;;;4.75;;
25301;SDS011;13243;50.888;4.724;2022-10-30T12:35:02;15.23;;;3.63;;
25301;SDS011;13243;50.888;4.724;2022-10-30T12:40:21;12.77;;;4.32;;
25301;SDS011;13243;50.888;4.724;2022-10-30T12:45:29;11.43;;;4.10;;
25301;SDS011;13243;50.888;4.724;2022-10-30T12:50:49;16.75;;;3.90;;
25301;SDS011;13243;50.888;4.724;2022-10-30T12:56:19;16.90;;;5.03;;
25301;SDS011;13243;50.888;4.724;2022-10-30T13:01:26;22.60;;;4.97;;
25301;SDS011;13243;50.888;4.724;2022-10-30T13:06:45;12.25;;;3.95;;
25301;SDS011;13243;50.888;4.724;2022-10-30T13:12:21;8.45;;;3.78;;
25301;SDS011;13243;50.888;4.724;2022-10-30T13:17:28;9.88;;;4.25;;
25301;SDS011;13243;50.888;4.724;2022-10-30T13:33:28;12.02;;;3.85;;
25301;SDS011;13243;50.888;4.724;2022-10-30T13:38:46;13.05;;;3.92;;
25301;SDS011;13243;50.888;4.724;2022-10-30T13:55:18;21.15;;;4.68;;
25301;SDS011;13243;50.888;4.724;2022-10-30T14:00:33;12.98;;;4.50;;
25301;SDS011;13243;50.888;4.724;2022-10-30T14:06:01;15.27;;;3.72;;
25301;SDS011;13243;50.888;4.724;2022-10-30T14:21:51;9.18;;;3.95;;
25301;SDS011;13243;50.888;4.724;2022-10-30T14:42:28;13.85;;;5.18;;
25301;SDS011;13243;50.888;4.724;2022-10-30T14:58:37;16.77;;;5.40;;
25301;SDS011;13243;50.888;4.724;2022-10-30T15:15:12;14.48;;;3.60;;
25301;SDS011;13243;50.888;4.724;2022-10-30T15:19:55;15.30;;;4.47;;
25301;SDS011;13243;50.888;4.724;2022-10-30T15:25:00;12.20;;;3.78;;
25301;SDS011;13243;50.888;4.724;2022-10-30T15:30:03;16.00;;;4.50;;
25301;SDS011;13243;50.888;4.724;2022-10-30T15:35:09;8.75;;;3.70;;
25301;SDS011;13243;50.888;4.724;2022-10-30T15:40:19;11.55;;;4.20;;
25301;SDS011;13243;50.888;4.724;2022-10-30T15:45:39;27.17;;;6.55;;
25301;SDS011;13243;50.888;4.724;2022-10-30T15:50:44;14.90;;;5.38;;
25301;SDS011;13243;50.888;4.724;2022-10-30T15:55:53;18.73;;;5.27;;
25301;SDS011;13243;50.888;4.724;2022-10-30T16:00:59;13.25;;;5.68;;
25301;SDS011;13243;50.888;4.724;2022-10-30T16:06:06;23.08;;;6.55;;
25301;SDS011;13243;50.888;4.724;2022-10-30T16:11:16;18.73;;;6.90;;
25301;SDS011;13243;50.888;4.724;2022-10-30T16:16:20;11.98;;;5.93;;
25301;SDS011;13243;50.888;4.724;2022-10-30T16:21:26;18.33;;;6.30;;
25301;SDS011;13243;50.888;4.724;2022-10-30T16:26:33;10.27;;;6.00;;
25301;SDS011;13243;50.888;4.724;2022-10-30T16:31:38;20.02;;;6.45;;
25301;SDS011;13243;50.888;4.724;2022-10-30T16:36:42;14.38;;;6.78;;
25301;SDS011;13243;50.888;4.724;2022-10-30T16:41:44;12.98;;;6.30;;
25301;SDS011;13243;50.888;4.724;2022-10-30T16:46:54;18.95;;;7.25;;
25301;SDS011;13243;50.888;4.724;2022-10-30T16:52:01;16.13;;;7.28;;
25301;SDS011;13243;50.888;4.724;2022-10-30T16:57:11;22.92;;;7.88;;
25301;SDS011;13243;50.888;4.724;2022-10-30T17:02:20;21.85;;;7.90;;
25301;SDS011;13243;50.888;4.724;2022-10-30T17:07:24;15.80;;;8.10;;
25301;SDS011;13243;50.888;4.724;2022-10-30T17:12:27;23.90;;;8.93;;
25301;SDS011;13243;50.888;4.724;2022-10-30T17:17:31;16.02;;;7.50;;
25301;SDS011;13243;50.888;4.724;2022-10-30T17:22:38;24.17;;;8.32;;
25301;SDS011;13243;50.888;4.724;2022-10-30T17:27:41;19.10;;;7.72;;
25301;SDS011;13243;50.888;4.724;2022-10-30T17:32:50;22.17;;;8.35;;
25301;SDS011;13243;50.888;4.724;2022-10-30T17:37:54;18.92;;;7.25;;
25301;SDS011;13243;50.888;4.724;2022-10-30T17:43:02;18.27;;;7.32;;
25301;SDS011;13243;50.888;4.724;2022-10-30T17:48:09;26.55;;;8.77;;
25301;SDS011;13243;50.888;4.724;2022-10-30T17:53:21;21.92;;;7.88;;
25301;SDS011;13243;50.888;4.724;2022-10-30T18:03:31;19.55;;;7.47;;
25301;SDS011;13243;50.888;4.724;2022-10-30T18:08:32;21.65;;;7.90;;
25301;SDS011;13243;50.888;4.724;2022-10-30T18:13:34;23.02;;;7.72;;
25301;SDS011;13243;50.888;4.724;2022-10-30T18:18:36;17.70;;;8.43;;
25301;SDS011;13243;50.888;4.724;2022-10-30T18:23:38;20.80;;;8.68;;
25301;SDS011;13243;50.888;4.724;2022-10-30T18:28:54;25.05;;;9.38;;
25301;SDS011;13243;50.888;4.724;2022-10-30T18:33:56;18.30;;;8.95;;
25301;SDS011;13243;50.888;4.724;2022-10-30T18:38:58;16.80;;;8.57;;
25301;SDS011;13243;50.888;4.724;2022-10-30T18:43:59;18.15;;;8.05;;
25301;SDS011;13243;50.888;4.724;2022-10-30T18:49:02;19.50;;;8.52;;
25301;SDS011;13243;50.888;4.724;2022-10-30T18:54:10;20.00;;;7.22;;
25301;SDS011;13243;50.888;4.724;2022-10-30T18:59:16;16.17;;;9.07;;
25301;SDS011;13243;50.888;4.724;2022-10-30T19:04:17;17.67;;;8.55;;
25301;SDS011;13243;50.888;4.724;2022-10-30T19:09:22;20.13;;;10.13;;
25301;SDS011;13243;50.888;4.724;2022-10-30T19:14:24;16.27;;;9.38;;
25301;SDS011;13243;50.888;4.724;2022-10-30T19:19:26;23.10;;;10.73;;
25301;SDS011;13243;50.888;4.724;2022-10-30T19:24:28;19.13;;;9.98;;
25301;SDS011;13243;50.888;4.724;2022-10-30T19:29:30;23.33;;;8.88;;
25301;SDS011;13243;50.888;4.724;2022-10-30T19:34:31;21.70;;;9.90;;
25301;SDS011;13243;50.888;4.724;2022-10-30T19:39:33;20.50;;;9.15;;
25301;SDS011;13243;50.888;4.724;2022-10-30T19:44:35;20.40;;;9.52;;
25301;SDS011;13243;50.888;4.724;2022-10-30T19:49:37;19.75;;;9.30;;
25301;SDS011;13243;50.888;4.724;2022-10-30T19:54:38;21.65;;;8.52;;
25301;SDS011;13243;50.888;4.724;2022-10-30T19:59:40;20.50;;;9.00;;
25301;SDS011;13243;50.888;4.724;2022-10-30T20:04:42;19.33;;;9.00;;
25301;SDS011;13243;50.888;4.724;2022-10-30T20:09:44;21.60;;;9.95;;
25301;SDS011;13243;50.888;4.724;2022-10-30T20:14:46;19.23;;;9.45;;
25301;SDS011;13243;50.888;4.724;2022-10-30T20:19:48;24.08;;;9.10;;
25301;SDS011;13243;50.888;4.724;2022-10-30T20:24:49;20.10;;;9.95;;
25301;SDS011;13243;50.888;4.724;2022-10-30T20:29:51;20.08;;;10.40;;
25301;SDS011;13243;50.888;4.724;2022-10-30T20:34:53;20.25;;;10.15;;
25301;SDS011;13243;50.888;4.724;2022-10-30T20:39:55;22.20;;;10.35;;
25301;SDS011;13243;50.888;4.724;2022-10-30T20:44:56;21.85;;;10.80;;
25301;SDS011;13243;50.888;4.724;2022-10-30T20:49:58;17.63;;;10.32;;
25301;SDS011;13243;50.888;4.724;2022-10-30T20:55:00;20.73;;;10.70;;
25301;SDS011;13243;50.888;4.724;2022-10-30T21:00:06;24.98;;;11.65;;
25301;SDS011;13243;50.888;4.724;2022-10-30T21:05:09;28.73;;;11.15;;
25301;SDS011;13243;50.888;4.724;2022-10-30T21:10:31;19.65;;;9.40;;
25301;SDS011;13243;50.888;4.724;2022-10-30T21:15:33;25.15;;;10.30;;
25301;SDS011;13243;50.888;4.724;2022-10-30T21:20:37;23.98;;;9.02;;
25301;SDS011;13243;50.888;4.724;2022-10-30T21:25:41;24.73;;;10.15;;
25301;SDS011;13243;50.888;4.724;2022-10-30T21:30:43;19.35;;;9.23;;
25301;SDS011;13243;50.888;4.724;2022-10-30T21:35:44;17.35;;;9.32;;
25301;SDS011;13243;50.888;4.724;2022-10-30T21:40:53;22.15;;;9.57;;
25301;SDS011;13243;50.888;4.724;2022-10-30T21:45:56;23.00;;;13.13;;
25301;SDS011;13243;50.888;4.724;2022-10-30T21:51:05;23.83;;;11.00;;
25301;SDS011;13243;50.888;4.724;2022-10-30T21:56:08;14.73;;;8.80;;
25301;SDS011;13243;50.888;4.724;2022-10-30T22:01:16;18.42;;;9.18;;
25301;SDS011;13243;50.888;4.724;2022-10-30T22:06:21;19.95;;;10.02;;
25301;SDS011;13243;50.888;4.724;2022-10-30T22:11:24;20.25;;;9.77;;
25301;SDS011;13243;50.888;4.724;2022-10-30T22:16:28;18.80;;;10.07;;
25301;SDS011;13243;50.888;4.724;2022-10-30T22:21:30;21.48;;;9.48;;
25301;SDS011;13243;50.888;4.724;2022-10-30T22:26:32;22.13;;;9.93;;
25301;SDS011;13243;50.888;4.724;2022-10-30T22:31:34;26.77;;;10.75;;
25301;SDS011;13243;50.888;4.724;2022-10-30T22:36:36;23.05;;;10.20;;
25301;SDS011;13243;50.888;4.724;2022-10-30T22:41:38;20.73;;;10.45;;
25301;SDS011;13243;50.888;4.724;2022-10-30T22:46:40;22.10;;;11.65;;
25301;SDS011;13243;50.888;4.724;2022-10-30T22:51:42;26.02;;;11.30;;
25301;SDS011;13243;50.888;4.724;2022-10-30T22:56:44;22.70;;;10.27;;
25301;SDS011;13243;50.888;4.724;2022-10-30T23:01:45;16.45;;;9.80;;
25301;SDS011;13243;50.888;4.724;2022-10-30T23:06:47;19.98;;;9.02;;
25301;SDS011;13243;50.888;4.724;2022-10-30T23:11:49;19.02;;;9.55;;
25301;SDS011;13243;50.888;4.724;2022-10-30T23:16:51;24.00;;;10.40;;
25301;SDS011;13243;50.888;4.724;2022-10-30T23:21:56;15.30;;;8.75;;
25301;SDS011;13243;50.888;4.724;2022-10-30T23:26:59;23.85;;;10.20;;
25301;SDS011;13243;50.888;4.724;2022-10-30T23:32:00;16.92;;;8.85;;
25301;SDS011;13243;50.888;4.724;2022-10-30T23:37:02;22.13;;;9.45;;
25301;SDS011;13243;50.888;4.724;2022-10-30T23:42:04;19.30;;;9.40;;
25301;SDS011;13243;50.888;4.724;2022-10-30T23:47:06;15.05;;;8.63;;
25301;SDS011;13243;50.888;4.724;2022-10-30T23:52:07;21.55;;;9.40;;
25301;SDS011;13243;50.888;4.724;2022-10-30T23:57:09;14.57;;;8.48;;
